sensor_id;sensor_type;location;lat;lon;timestamp;P1;durP1;ratioP1;P2;durP2;ratioP2
46322;SDS011;32044;52.386;13.278;2023-08-30T00:00:00;9.05;;;5.68;;
46322;SDS011;32044;52.386;13.278;2023-08-30T00:02:27;9.68;;;6.07;;
46322;SDS011;32044;52.386;13.278;2023-08-30T00:04:57;8.23;;;5.57;;
46322;SDS011;32044;52.386;13.278;2023-08-30T00:07:25;9.18;;;5.72;;
46322;SDS011;32044;52.386;13.278;2023-08-30T00:09:53;8.90;;;5.65;;
46322;SDS011;32044;52.386;13.278;2023-08-30T00:12:20;10.05;;;5.68;;
46322;SDS011;32044;52.386;13.278;2023-08-30T00:14:48;8.40;;;5.90;;
46322;SDS011;32044;52.386;13.278;2023-08-30T00:17:17;7.97;;;5.68;;
46322;SDS011;32044;52.386;13.278;2023-08-30T00:19:46;7.18;;;5.25;;
46322;SDS011;32044;52.386;13.278;2023-08-30T00:22:14;6.72;;;6.03;;
46322;SDS011;32044;52.386;13.278;2023-08-30T00:24:42;7.60;;;6.05;;
46322;SDS011;32044;52.386;13.278;2023-08-30T00:27:09;9.68;;;7.28;;
46322;SDS011;32044;52.386;13.278;2023-08-30T00:29:37;10.10;;;7.03;;
46322;SDS011;32044;52.386;13.278;2023-08-30T00:32:05;11.73;;;5.97;;
46322;SDS011;32044;52.386;13.278;2023-08-30T00:34:33;10.35;;;5.45;;
46322;SDS011;32044;52.386;13.278;2023-08-30T00:37:01;12.07;;;6.45;;
46322;SDS011;32044;52.386;13.278;2023-08-30T00:39:29;7.30;;;5.10;;
46322;SDS011;32044;52.386;13.278;2023-08-30T00:41:56;5.88;;;4.78;;
46322;SDS011;32044;52.386;13.278;2023-08-30T00:44:24;5.35;;;4.53;;
46322;SDS011;32044;52.386;13.278;2023-08-30T00:46:51;6.57;;;4.15;;
46322;SDS011;32044;52.386;13.278;2023-08-30T00:49:19;8.45;;;4.25;;
46322;SDS011;32044;52.386;13.278;2023-08-30T00:51:47;5.88;;;4.30;;
46322;SDS011;32044;52.386;13.278;2023-08-30T00:54:15;6.75;;;4.15;;
46322;SDS011;32044;52.386;13.278;2023-08-30T00:56:43;8.55;;;4.55;;
46322;SDS011;32044;52.386;13.278;2023-08-30T00:59:10;5.28;;;4.38;;
46322;SDS011;32044;52.386;13.278;2023-08-30T01:01:38;5.13;;;4.47;;
46322;SDS011;32044;52.386;13.278;2023-08-30T01:04:07;6.35;;;4.40;;
46322;SDS011;32044;52.386;13.278;2023-08-30T01:06:35;8.25;;;5.60;;
46322;SDS011;32044;52.386;13.278;2023-08-30T01:09:04;12.35;;;6.57;;
46322;SDS011;32044;52.386;13.278;2023-08-30T01:11:36;8.48;;;5.47;;
46322;SDS011;32044;52.386;13.278;2023-08-30T01:14:04;5.65;;;4.90;;
46322;SDS011;32044;52.386;13.278;2023-08-30T01:16:34;7.15;;;5.45;;
46322;SDS011;32044;52.386;13.278;2023-08-30T01:19:04;6.63;;;5.40;;
46322;SDS011;32044;52.386;13.278;2023-08-30T01:21:45;6.60;;;5.25;;
46322;SDS011;32044;52.386;13.278;2023-08-30T01:24:40;8.13;;;6.20;;
46322;SDS011;32044;52.386;13.278;2023-08-30T01:28:06;7.40;;;5.80;;
46322;SDS011;32044;52.386;13.278;2023-08-30T01:33:26;6.47;;;5.43;;
46322;SDS011;32044;52.386;13.278;2023-08-30T01:35:55;5.25;;;4.75;;
46322;SDS011;32044;52.386;13.278;2023-08-30T01:38:46;5.72;;;5.13;;
46322;SDS011;32044;52.386;13.278;2023-08-30T01:41:13;7.28;;;5.65;;
46322;SDS011;32044;52.386;13.278;2023-08-30T01:43:58;9.40;;;6.07;;
46322;SDS011;32044;52.386;13.278;2023-08-30T01:46:33;6.10;;;5.50;;
46322;SDS011;32044;52.386;13.278;2023-08-30T01:49:06;6.35;;;5.22;;
46322;SDS011;32044;52.386;13.278;2023-08-30T01:51:36;8.23;;;5.82;;
46322;SDS011;32044;52.386;13.278;2023-08-30T01:54:12;10.45;;;5.63;;
46322;SDS011;32044;52.386;13.278;2023-08-30T01:56:46;9.55;;;5.50;;
46322;SDS011;32044;52.386;13.278;2023-08-30T01:59:18;6.68;;;5.05;;
46322;SDS011;32044;52.386;13.278;2023-08-30T02:01:47;8.57;;;5.80;;
46322;SDS011;32044;52.386;13.278;2023-08-30T02:04:14;6.60;;;5.85;;
46322;SDS011;32044;52.386;13.278;2023-08-30T02:06:43;6.22;;;5.50;;
46322;SDS011;32044;52.386;13.278;2023-08-30T02:10:08;5.78;;;4.70;;
46322;SDS011;32044;52.386;13.278;2023-08-30T02:13:30;7.57;;;6.03;;
46322;SDS011;32044;52.386;13.278;2023-08-30T02:16:50;6.38;;;5.65;;
46322;SDS011;32044;52.386;13.278;2023-08-30T02:20:11;9.45;;;6.15;;
46322;SDS011;32044;52.386;13.278;2023-08-30T02:23:31;6.38;;;5.03;;
46322;SDS011;32044;52.386;13.278;2023-08-30T02:26:51;6.80;;;6.10;;
46322;SDS011;32044;52.386;13.278;2023-08-30T02:30:05;8.15;;;6.22;;
46322;SDS011;32044;52.386;13.278;2023-08-30T02:33:25;7.55;;;6.00;;
46322;SDS011;32044;52.386;13.278;2023-08-30T02:36:45;7.00;;;6.03;;
46322;SDS011;32044;52.386;13.278;2023-08-30T02:40:06;7.75;;;5.85;;
46322;SDS011;32044;52.386;13.278;2023-08-30T02:43:27;6.35;;;5.70;;
46322;SDS011;32044;52.386;13.278;2023-08-30T02:46:48;9.05;;;6.60;;
46322;SDS011;32044;52.386;13.278;2023-08-30T02:49:28;9.82;;;6.90;;
46322;SDS011;32044;52.386;13.278;2023-08-30T02:52:48;7.38;;;5.93;;
46322;SDS011;32044;52.386;13.278;2023-08-30T02:56:08;6.85;;;6.13;;
46322;SDS011;32044;52.386;13.278;2023-08-30T02:59:03;7.07;;;6.18;;
46322;SDS011;32044;52.386;13.278;2023-08-30T03:02:24;6.30;;;5.63;;
46322;SDS011;32044;52.386;13.278;2023-08-30T03:05:45;6.50;;;5.73;;
46322;SDS011;32044;52.386;13.278;2023-08-30T03:09:05;7.47;;;5.35;;
46322;SDS011;32044;52.386;13.278;2023-08-30T03:12:25;5.40;;;4.55;;
46322;SDS011;32044;52.386;13.278;2023-08-30T03:15:45;5.18;;;4.45;;
46322;SDS011;32044;52.386;13.278;2023-08-30T03:19:06;5.07;;;4.60;;
46322;SDS011;32044;52.386;13.278;2023-08-30T03:22:30;4.85;;;4.35;;
46322;SDS011;32044;52.386;13.278;2023-08-30T03:25:50;5.75;;;5.15;;
46322;SDS011;32044;52.386;13.278;2023-08-30T03:29:11;4.38;;;3.60;;
46322;SDS011;32044;52.386;13.278;2023-08-30T03:32:32;4.38;;;3.97;;
46322;SDS011;32044;52.386;13.278;2023-08-30T03:35:54;3.92;;;3.63;;
46322;SDS011;32044;52.386;13.278;2023-08-30T03:39:20;3.53;;;3.22;;
46322;SDS011;32044;52.386;13.278;2023-08-30T03:42:40;4.13;;;3.70;;
46322;SDS011;32044;52.386;13.278;2023-08-30T03:45:59;6.60;;;5.45;;
46322;SDS011;32044;52.386;13.278;2023-08-30T03:49:20;5.97;;;4.97;;
46322;SDS011;32044;52.386;13.278;2023-08-30T03:52:41;5.93;;;4.88;;
46322;SDS011;32044;52.386;13.278;2023-08-30T03:56:00;5.65;;;5.13;;
46322;SDS011;32044;52.386;13.278;2023-08-30T03:59:21;5.15;;;4.65;;
46322;SDS011;32044;52.386;13.278;2023-08-30T04:02:41;4.95;;;4.45;;
46322;SDS011;32044;52.386;13.278;2023-08-30T04:06:01;9.43;;;5.40;;
46322;SDS011;32044;52.386;13.278;2023-08-30T04:09:23;7.50;;;6.20;;
46322;SDS011;32044;52.386;13.278;2023-08-30T04:12:43;5.50;;;4.85;;
46322;SDS011;32044;52.386;13.278;2023-08-30T04:16:03;8.40;;;5.40;;
46322;SDS011;32044;52.386;13.278;2023-08-30T04:19:23;5.47;;;4.97;;
46322;SDS011;32044;52.386;13.278;2023-08-30T04:22:43;10.48;;;5.88;;
46322;SDS011;32044;52.386;13.278;2023-08-30T04:26:04;6.03;;;5.43;;
46322;SDS011;32044;52.386;13.278;2023-08-30T04:29:11;7.00;;;5.60;;
46322;SDS011;32044;52.386;13.278;2023-08-30T04:32:17;6.15;;;5.47;;
46322;SDS011;32044;52.386;13.278;2023-08-30T04:35:41;6.00;;;5.13;;
46322;SDS011;32044;52.386;13.278;2023-08-30T04:39:01;6.15;;;5.55;;
46322;SDS011;32044;52.386;13.278;2023-08-30T04:42:22;6.03;;;5.03;;
46322;SDS011;32044;52.386;13.278;2023-08-30T04:44:50;6.05;;;5.43;;
46322;SDS011;32044;52.386;13.278;2023-08-30T04:47:18;6.45;;;5.60;;
46322;SDS011;32044;52.386;13.278;2023-08-30T04:50:37;8.05;;;5.78;;
46322;SDS011;32044;52.386;13.278;2023-08-30T04:56:27;8.50;;;6.45;;
46322;SDS011;32044;52.386;13.278;2023-08-30T04:59:48;7.35;;;6.65;;
46322;SDS011;32044;52.386;13.278;2023-08-30T05:03:08;7.32;;;6.60;;
46322;SDS011;32044;52.386;13.278;2023-08-30T05:06:29;7.15;;;6.07;;
46322;SDS011;32044;52.386;13.278;2023-08-30T05:09:49;6.32;;;5.72;;
46322;SDS011;32044;52.386;13.278;2023-08-30T05:13:10;6.97;;;6.28;;
46322;SDS011;32044;52.386;13.278;2023-08-30T05:16:31;7.60;;;6.05;;
46322;SDS011;32044;52.386;13.278;2023-08-30T05:19:51;5.80;;;5.20;;
46322;SDS011;32044;52.386;13.278;2023-08-30T05:23:12;5.97;;;5.38;;
46322;SDS011;32044;52.386;13.278;2023-08-30T05:26:33;9.45;;;6.10;;
46322;SDS011;32044;52.386;13.278;2023-08-30T05:29:53;7.53;;;5.50;;
46322;SDS011;32044;52.386;13.278;2023-08-30T05:33:14;6.03;;;5.43;;
46322;SDS011;32044;52.386;13.278;2023-08-30T05:36:35;6.35;;;5.57;;
46322;SDS011;32044;52.386;13.278;2023-08-30T05:39:56;6.30;;;5.43;;
46322;SDS011;32044;52.386;13.278;2023-08-30T05:43:16;6.40;;;5.33;;
46322;SDS011;32044;52.386;13.278;2023-08-30T05:46:37;7.35;;;6.03;;
46322;SDS011;32044;52.386;13.278;2023-08-30T05:49:58;7.97;;;5.57;;
46322;SDS011;32044;52.386;13.278;2023-08-30T05:53:18;8.40;;;6.38;;
46322;SDS011;32044;52.386;13.278;2023-08-30T05:56:38;8.13;;;6.75;;
46322;SDS011;32044;52.386;13.278;2023-08-30T05:59:59;6.93;;;6.32;;
46322;SDS011;32044;52.386;13.278;2023-08-30T06:03:19;6.82;;;6.15;;
46322;SDS011;32044;52.386;13.278;2023-08-30T06:06:41;6.25;;;5.63;;
46322;SDS011;32044;52.386;13.278;2023-08-30T06:10:01;8.93;;;6.70;;
46322;SDS011;32044;52.386;13.278;2023-08-30T06:13:21;6.78;;;5.85;;
46322;SDS011;32044;52.386;13.278;2023-08-30T06:16:42;6.20;;;5.32;;
46322;SDS011;32044;52.386;13.278;2023-08-30T06:20:02;7.22;;;6.22;;
46322;SDS011;32044;52.386;13.278;2023-08-30T06:23:23;6.85;;;5.80;;
46322;SDS011;32044;52.386;13.278;2023-08-30T06:26:43;7.07;;;5.32;;
46322;SDS011;32044;52.386;13.278;2023-08-30T06:30:09;6.47;;;5.88;;
46322;SDS011;32044;52.386;13.278;2023-08-30T06:33:29;5.28;;;4.88;;
46322;SDS011;32044;52.386;13.278;2023-08-30T06:36:49;6.45;;;5.85;;
46322;SDS011;32044;52.386;13.278;2023-08-30T06:40:11;7.60;;;5.57;;
46322;SDS011;32044;52.386;13.278;2023-08-30T06:43:31;5.53;;;4.40;;
46322;SDS011;32044;52.386;13.278;2023-08-30T06:46:51;4.95;;;4.45;;
46322;SDS011;32044;52.386;13.278;2023-08-30T06:50:11;7.88;;;4.53;;
46322;SDS011;32044;52.386;13.278;2023-08-30T06:53:31;7.63;;;3.85;;
46322;SDS011;32044;52.386;13.278;2023-08-30T06:56:59;4.88;;;3.90;;
46322;SDS011;32044;52.386;13.278;2023-08-30T07:00:19;4.20;;;3.80;;
46322;SDS011;32044;52.386;13.278;2023-08-30T07:03:39;3.88;;;3.47;;
46322;SDS011;32044;52.386;13.278;2023-08-30T07:07:00;6.10;;;3.50;;
46322;SDS011;32044;52.386;13.278;2023-08-30T07:10:20;4.40;;;3.58;;
46322;SDS011;32044;52.386;13.278;2023-08-30T07:13:59;4.65;;;3.80;;
46322;SDS011;32044;52.386;13.278;2023-08-30T07:17:20;4.17;;;2.80;;
46322;SDS011;32044;52.386;13.278;2023-08-30T07:20:38;3.45;;;2.60;;
46322;SDS011;32044;52.386;13.278;2023-08-30T07:23:59;3.35;;;2.22;;
46322;SDS011;32044;52.386;13.278;2023-08-30T07:26:53;3.13;;;2.83;;
46322;SDS011;32044;52.386;13.278;2023-08-30T07:30:14;4.18;;;2.85;;
46322;SDS011;32044;52.386;13.278;2023-08-30T07:33:34;4.53;;;3.00;;
46322;SDS011;32044;52.386;13.278;2023-08-30T07:36:54;3.13;;;2.53;;
46322;SDS011;32044;52.386;13.278;2023-08-30T07:40:14;4.40;;;3.10;;
46322;SDS011;32044;52.386;13.278;2023-08-30T07:43:08;6.60;;;3.25;;
46322;SDS011;32044;52.386;13.278;2023-08-30T07:46:29;2.47;;;2.28;;
46322;SDS011;32044;52.386;13.278;2023-08-30T07:49:49;4.07;;;2.75;;
46322;SDS011;32044;52.386;13.278;2023-08-30T07:53:09;2.63;;;2.17;;
46322;SDS011;32044;52.386;13.278;2023-08-30T07:56:31;2.60;;;2.15;;
46322;SDS011;32044;52.386;13.278;2023-08-30T07:59:14;3.92;;;2.95;;
46322;SDS011;32044;52.386;13.278;2023-08-30T08:02:01;3.67;;;2.38;;
46322;SDS011;32044;52.386;13.278;2023-08-30T08:05:21;2.40;;;2.20;;
46322;SDS011;32044;52.386;13.278;2023-08-30T08:08:33;2.80;;;1.97;;
46322;SDS011;32044;52.386;13.278;2023-08-30T08:11:35;2.83;;;1.90;;
46322;SDS011;32044;52.386;13.278;2023-08-30T08:14:25;3.80;;;2.65;;
46322;SDS011;32044;52.386;13.278;2023-08-30T08:16:54;3.72;;;2.10;;
46322;SDS011;32044;52.386;13.278;2023-08-30T08:19:43;4.53;;;1.67;;
46322;SDS011;32044;52.386;13.278;2023-08-30T08:22:17;7.03;;;2.80;;
46322;SDS011;32044;52.386;13.278;2023-08-30T08:25:20;3.17;;;2.40;;
46322;SDS011;32044;52.386;13.278;2023-08-30T08:27:57;3.20;;;2.15;;
46322;SDS011;32044;52.386;13.278;2023-08-30T08:30:25;2.20;;;2.00;;
46322;SDS011;32044;52.386;13.278;2023-08-30T08:33:22;2.97;;;2.35;;
46322;SDS011;32044;52.386;13.278;2023-08-30T08:36:42;3.55;;;1.60;;
46322;SDS011;32044;52.386;13.278;2023-08-30T08:39:59;2.88;;;2.60;;
46322;SDS011;32044;52.386;13.278;2023-08-30T08:42:35;2.28;;;1.92;;
46322;SDS011;32044;52.386;13.278;2023-08-30T08:45:56;2.60;;;1.67;;
46322;SDS011;32044;52.386;13.278;2023-08-30T08:49:20;2.33;;;1.40;;
46322;SDS011;32044;52.386;13.278;2023-08-30T08:52:40;4.05;;;2.85;;
46322;SDS011;32044;52.386;13.278;2023-08-30T08:56:00;2.40;;;1.75;;
46322;SDS011;32044;52.386;13.278;2023-08-30T08:59:21;1.92;;;1.65;;
46322;SDS011;32044;52.386;13.278;2023-08-30T09:02:42;2.72;;;1.70;;
46322;SDS011;32044;52.386;13.278;2023-08-30T09:06:04;4.85;;;1.88;;
46322;SDS011;32044;52.386;13.278;2023-08-30T09:09:24;3.17;;;1.97;;
46322;SDS011;32044;52.386;13.278;2023-08-30T09:12:44;3.90;;;1.58;;
46322;SDS011;32044;52.386;13.278;2023-08-30T09:16:11;2.05;;;1.67;;
46322;SDS011;32044;52.386;13.278;2023-08-30T09:19:31;3.05;;;1.95;;
46322;SDS011;32044;52.386;13.278;2023-08-30T09:22:52;2.08;;;1.85;;
46322;SDS011;32044;52.386;13.278;2023-08-30T09:26:12;4.20;;;1.98;;
46322;SDS011;32044;52.386;13.278;2023-08-30T09:29:32;6.07;;;2.10;;
46322;SDS011;32044;52.386;13.278;2023-08-30T09:32:52;4.45;;;2.50;;
46322;SDS011;32044;52.386;13.278;2023-08-30T09:36:14;3.70;;;2.45;;
46322;SDS011;32044;52.386;13.278;2023-08-30T09:39:35;5.75;;;2.10;;
46322;SDS011;32044;52.386;13.278;2023-08-30T09:42:57;5.90;;;3.45;;
46322;SDS011;32044;52.386;13.278;2023-08-30T09:46:39;6.85;;;2.55;;
46322;SDS011;32044;52.386;13.278;2023-08-30T09:49:59;8.35;;;3.05;;
46322;SDS011;32044;52.386;13.278;2023-08-30T09:53:21;4.18;;;2.45;;
46322;SDS011;32044;52.386;13.278;2023-08-30T09:57:03;4.23;;;2.50;;
46322;SDS011;32044;52.386;13.278;2023-08-30T10:00:24;2.45;;;2.25;;
46322;SDS011;32044;52.386;13.278;2023-08-30T10:03:44;2.90;;;2.35;;
46322;SDS011;32044;52.386;13.278;2023-08-30T10:07:05;4.32;;;2.38;;
46322;SDS011;32044;52.386;13.278;2023-08-30T10:10:26;2.67;;;2.13;;
46322;SDS011;32044;52.386;13.278;2023-08-30T10:13:48;4.57;;;1.60;;
46322;SDS011;32044;52.386;13.278;2023-08-30T10:17:10;2.50;;;1.77;;
46322;SDS011;32044;52.386;13.278;2023-08-30T10:20:32;3.33;;;1.50;;
46322;SDS011;32044;52.386;13.278;2023-08-30T10:23:52;2.38;;;1.48;;
46322;SDS011;32044;52.386;13.278;2023-08-30T10:27:35;1.70;;;1.60;;
46322;SDS011;32044;52.386;13.278;2023-08-30T10:30:58;2.17;;;1.50;;
46322;SDS011;32044;52.386;13.278;2023-08-30T10:34:18;3.40;;;1.50;;
46322;SDS011;32044;52.386;13.278;2023-08-30T10:37:38;4.03;;;1.60;;
46322;SDS011;32044;52.386;13.278;2023-08-30T10:41:05;2.97;;;1.35;;
46322;SDS011;32044;52.386;13.278;2023-08-30T10:44:26;3.45;;;1.40;;
46322;SDS011;32044;52.386;13.278;2023-08-30T10:47:54;2.03;;;1.50;;
46322;SDS011;32044;52.386;13.278;2023-08-30T10:51:20;2.35;;;1.55;;
46322;SDS011;32044;52.386;13.278;2023-08-30T10:54:41;1.73;;;1.17;;
46322;SDS011;32044;52.386;13.278;2023-08-30T10:58:01;2.88;;;1.35;;
46322;SDS011;32044;52.386;13.278;2023-08-30T11:01:21;3.33;;;1.40;;
46322;SDS011;32044;52.386;13.278;2023-08-30T11:04:44;6.75;;;1.60;;
46322;SDS011;32044;52.386;13.278;2023-08-30T11:08:05;1.77;;;1.58;;
46322;SDS011;32044;52.386;13.278;2023-08-30T11:11:30;1.88;;;1.50;;
46322;SDS011;32044;52.386;13.278;2023-08-30T11:14:51;2.27;;;1.47;;
46322;SDS011;32044;52.386;13.278;2023-08-30T11:18:12;2.35;;;1.20;;
46322;SDS011;32044;52.386;13.278;2023-08-30T11:21:36;2.15;;;1.65;;
46322;SDS011;32044;52.386;13.278;2023-08-30T11:24:56;2.25;;;1.50;;
46322;SDS011;32044;52.386;13.278;2023-08-30T11:28:21;2.60;;;1.33;;
46322;SDS011;32044;52.386;13.278;2023-08-30T11:31:41;2.65;;;1.65;;
46322;SDS011;32044;52.386;13.278;2023-08-30T11:35:01;2.92;;;1.50;;
46322;SDS011;32044;52.386;13.278;2023-08-30T11:38:23;2.67;;;1.40;;
46322;SDS011;32044;52.386;13.278;2023-08-30T11:41:44;1.25;;;1.15;;
46322;SDS011;32044;52.386;13.278;2023-08-30T11:45:04;1.90;;;1.10;;
46322;SDS011;32044;52.386;13.278;2023-08-30T11:48:25;3.05;;;1.80;;
46322;SDS011;32044;52.386;13.278;2023-08-30T11:51:46;1.52;;;1.25;;
46322;SDS011;32044;52.386;13.278;2023-08-30T11:55:08;2.53;;;1.55;;
46322;SDS011;32044;52.386;13.278;2023-08-30T11:58:31;1.73;;;1.17;;
46322;SDS011;32044;52.386;13.278;2023-08-30T12:01:52;1.73;;;1.45;;
46322;SDS011;32044;52.386;13.278;2023-08-30T12:05:13;2.28;;;1.40;;
46322;SDS011;32044;52.386;13.278;2023-08-30T12:08:38;2.08;;;1.10;;
46322;SDS011;32044;52.386;13.278;2023-08-30T12:12:05;2.83;;;1.30;;
46322;SDS011;32044;52.386;13.278;2023-08-30T12:15:25;1.88;;;1.25;;
46322;SDS011;32044;52.386;13.278;2023-08-30T12:18:47;2.95;;;1.75;;
46322;SDS011;32044;52.386;13.278;2023-08-30T12:22:07;1.83;;;1.45;;
46322;SDS011;32044;52.386;13.278;2023-08-30T12:25:27;2.58;;;1.20;;
46322;SDS011;32044;52.386;13.278;2023-08-30T12:28:49;1.88;;;1.35;;
46322;SDS011;32044;52.386;13.278;2023-08-30T12:32:09;2.80;;;1.50;;
46322;SDS011;32044;52.386;13.278;2023-08-30T12:35:29;5.80;;;1.73;;
46322;SDS011;32044;52.386;13.278;2023-08-30T12:38:49;2.53;;;1.60;;
46322;SDS011;32044;52.386;13.278;2023-08-30T12:42:09;3.95;;;1.80;;
46322;SDS011;32044;52.386;13.278;2023-08-30T12:45:31;3.60;;;1.50;;
46322;SDS011;32044;52.386;13.278;2023-08-30T12:48:51;3.13;;;1.30;;
46322;SDS011;32044;52.386;13.278;2023-08-30T12:51:19;6.15;;;1.88;;
46322;SDS011;32044;52.386;13.278;2023-08-30T12:53:46;8.35;;;1.50;;
46322;SDS011;32044;52.386;13.278;2023-08-30T12:56:14;2.60;;;1.55;;
46322;SDS011;32044;52.386;13.278;2023-08-30T12:58:41;1.90;;;1.40;;
46322;SDS011;32044;52.386;13.278;2023-08-30T13:01:10;3.55;;;1.52;;
46322;SDS011;32044;52.386;13.278;2023-08-30T13:06:08;4.43;;;1.45;;
46322;SDS011;32044;52.386;13.278;2023-08-30T13:08:35;3.45;;;1.30;;
46322;SDS011;32044;52.386;13.278;2023-08-30T13:11:03;3.35;;;1.50;;
46322;SDS011;32044;52.386;13.278;2023-08-30T13:13:30;4.25;;;1.65;;
46322;SDS011;32044;52.386;13.278;2023-08-30T13:15:58;4.97;;;1.25;;
46322;SDS011;32044;52.386;13.278;2023-08-30T13:18:27;1.73;;;1.30;;
46322;SDS011;32044;52.386;13.278;2023-08-30T13:20:54;1.42;;;1.20;;
46322;SDS011;32044;52.386;13.278;2023-08-30T13:23:22;2.35;;;1.45;;
46322;SDS011;32044;52.386;13.278;2023-08-30T13:25:49;2.00;;;1.30;;
46322;SDS011;32044;52.386;13.278;2023-08-30T13:28:17;1.73;;;1.20;;
46322;SDS011;32044;52.386;13.278;2023-08-30T13:30:44;2.25;;;1.40;;
46322;SDS011;32044;52.386;13.278;2023-08-30T13:33:12;1.50;;;1.10;;
46322;SDS011;32044;52.386;13.278;2023-08-30T13:35:42;3.72;;;1.80;;
46322;SDS011;32044;52.386;13.278;2023-08-30T13:38:09;1.95;;;1.33;;
46322;SDS011;32044;52.386;13.278;2023-08-30T13:40:37;2.17;;;1.33;;
46322;SDS011;32044;52.386;13.278;2023-08-30T13:43:04;2.25;;;1.40;;
46322;SDS011;32044;52.386;13.278;2023-08-30T13:45:33;2.30;;;1.40;;
46322;SDS011;32044;52.386;13.278;2023-08-30T13:48:01;3.20;;;1.50;;
46322;SDS011;32044;52.386;13.278;2023-08-30T13:50:29;5.28;;;1.98;;
46322;SDS011;32044;52.386;13.278;2023-08-30T13:52:59;2.65;;;1.55;;
46322;SDS011;32044;52.386;13.278;2023-08-30T13:55:27;2.90;;;2.00;;
46322;SDS011;32044;52.386;13.278;2023-08-30T13:57:54;3.97;;;1.77;;
46322;SDS011;32044;52.386;13.278;2023-08-30T14:00:22;2.58;;;1.40;;
46322;SDS011;32044;52.386;13.278;2023-08-30T14:02:50;2.47;;;1.30;;
46322;SDS011;32044;52.386;13.278;2023-08-30T14:05:18;4.70;;;1.80;;
46322;SDS011;32044;52.386;13.278;2023-08-30T14:07:45;2.03;;;1.20;;
46322;SDS011;32044;52.386;13.278;2023-08-30T14:10:15;1.95;;;1.23;;
46322;SDS011;32044;52.386;13.278;2023-08-30T14:12:46;1.50;;;1.35;;
46322;SDS011;32044;52.386;13.278;2023-08-30T14:15:14;1.63;;;1.40;;
46322;SDS011;32044;52.386;13.278;2023-08-30T14:17:43;1.98;;;1.48;;
46322;SDS011;32044;52.386;13.278;2023-08-30T14:20:10;1.50;;;1.40;;
46322;SDS011;32044;52.386;13.278;2023-08-30T14:22:39;2.55;;;1.50;;
46322;SDS011;32044;52.386;13.278;2023-08-30T14:25:06;3.25;;;1.45;;
46322;SDS011;32044;52.386;13.278;2023-08-30T14:27:39;2.22;;;1.17;;
46322;SDS011;32044;52.386;13.278;2023-08-30T14:30:07;2.00;;;1.40;;
46322;SDS011;32044;52.386;13.278;2023-08-30T14:32:35;2.50;;;1.40;;
46322;SDS011;32044;52.386;13.278;2023-08-30T14:35:02;2.28;;;1.40;;
46322;SDS011;32044;52.386;13.278;2023-08-30T14:37:30;1.40;;;1.30;;
46322;SDS011;32044;52.386;13.278;2023-08-30T14:39:58;2.45;;;1.63;;
46322;SDS011;32044;52.386;13.278;2023-08-30T14:42:25;3.42;;;1.58;;
46322;SDS011;32044;52.386;13.278;2023-08-30T14:44:54;4.18;;;1.45;;
46322;SDS011;32044;52.386;13.278;2023-08-30T14:47:22;1.67;;;1.35;;
46322;SDS011;32044;52.386;13.278;2023-08-30T14:49:49;1.75;;;1.15;;
46322;SDS011;32044;52.386;13.278;2023-08-30T14:52:17;3.33;;;1.33;;
46322;SDS011;32044;52.386;13.278;2023-08-30T14:54:44;2.38;;;1.50;;
46322;SDS011;32044;52.386;13.278;2023-08-30T14:57:12;2.30;;;1.50;;
46322;SDS011;32044;52.386;13.278;2023-08-30T14:59:40;2.70;;;1.40;;
46322;SDS011;32044;52.386;13.278;2023-08-30T15:02:09;2.40;;;1.60;;
46322;SDS011;32044;52.386;13.278;2023-08-30T15:04:36;2.78;;;1.52;;
46322;SDS011;32044;52.386;13.278;2023-08-30T15:07:13;3.13;;;1.60;;
46322;SDS011;32044;52.386;13.278;2023-08-30T15:09:40;2.72;;;1.25;;
46322;SDS011;32044;52.386;13.278;2023-08-30T15:12:08;3.13;;;1.77;;
46322;SDS011;32044;52.386;13.278;2023-08-30T15:14:36;2.15;;;1.30;;
46322;SDS011;32044;52.386;13.278;2023-08-30T15:17:08;2.35;;;1.42;;
46322;SDS011;32044;52.386;13.278;2023-08-30T15:19:36;2.00;;;1.50;;
46322;SDS011;32044;52.386;13.278;2023-08-30T15:22:03;3.08;;;1.30;;
46322;SDS011;32044;52.386;13.278;2023-08-30T15:24:32;3.00;;;1.50;;
46322;SDS011;32044;52.386;13.278;2023-08-30T15:26:59;2.78;;;1.50;;
46322;SDS011;32044;52.386;13.278;2023-08-30T15:29:27;1.25;;;1.15;;
46322;SDS011;32044;52.386;13.278;2023-08-30T15:31:54;2.58;;;1.55;;
46322;SDS011;32044;52.386;13.278;2023-08-30T15:34:23;2.35;;;1.42;;
46322;SDS011;32044;52.386;13.278;2023-08-30T15:36:51;4.65;;;1.60;;
46322;SDS011;32044;52.386;13.278;2023-08-30T15:39:18;2.72;;;1.55;;
46322;SDS011;32044;52.386;13.278;2023-08-30T15:41:46;1.95;;;1.42;;
46322;SDS011;32044;52.386;13.278;2023-08-30T15:44:14;1.92;;;1.35;;
46322;SDS011;32044;52.386;13.278;2023-08-30T15:46:42;3.00;;;1.60;;
46322;SDS011;32044;52.386;13.278;2023-08-30T15:49:09;2.13;;;1.55;;
46322;SDS011;32044;52.386;13.278;2023-08-30T15:51:38;4.10;;;1.42;;
46322;SDS011;32044;52.386;13.278;2023-08-30T15:54:06;2.67;;;1.55;;
46322;SDS011;32044;52.386;13.278;2023-08-30T15:56:33;1.67;;;1.23;;
46322;SDS011;32044;52.386;13.278;2023-08-30T15:59:02;1.88;;;1.40;;
46322;SDS011;32044;52.386;13.278;2023-08-30T16:01:30;2.63;;;1.45;;
46322;SDS011;32044;52.386;13.278;2023-08-30T16:03:58;2.20;;;1.70;;
46322;SDS011;32044;52.386;13.278;2023-08-30T16:06:26;5.15;;;2.17;;
46322;SDS011;32044;52.386;13.278;2023-08-30T16:08:55;3.17;;;1.77;;
46322;SDS011;32044;52.386;13.278;2023-08-30T16:11:22;3.33;;;1.90;;
46322;SDS011;32044;52.386;13.278;2023-08-30T16:13:50;4.55;;;1.75;;
46322;SDS011;32044;52.386;13.278;2023-08-30T16:16:18;3.80;;;1.50;;
46322;SDS011;32044;52.386;13.278;2023-08-30T16:18:45;4.43;;;1.70;;
46322;SDS011;32044;52.386;13.278;2023-08-30T16:21:13;2.03;;;1.60;;
46322;SDS011;32044;52.386;13.278;2023-08-30T16:23:40;1.67;;;1.58;;
46322;SDS011;32044;52.386;13.278;2023-08-30T16:26:09;2.65;;;1.50;;
46322;SDS011;32044;52.386;13.278;2023-08-30T16:28:37;2.67;;;1.40;;
46322;SDS011;32044;52.386;13.278;2023-08-30T16:31:05;3.35;;;1.60;;
46322;SDS011;32044;52.386;13.278;2023-08-30T16:33:33;2.00;;;1.63;;
46322;SDS011;32044;52.386;13.278;2023-08-30T16:36:01;1.45;;;1.35;;
46322;SDS011;32044;52.386;13.278;2023-08-30T16:38:28;2.67;;;1.50;;
46322;SDS011;32044;52.386;13.278;2023-08-30T16:40:56;1.92;;;1.50;;
46322;SDS011;32044;52.386;13.278;2023-08-30T16:43:30;5.38;;;1.70;;
46322;SDS011;32044;52.386;13.278;2023-08-30T16:45:58;6.35;;;1.65;;
46322;SDS011;32044;52.386;13.278;2023-08-30T16:48:25;2.67;;;1.40;;
46322;SDS011;32044;52.386;13.278;2023-08-30T16:50:53;3.90;;;1.40;;
46322;SDS011;32044;52.386;13.278;2023-08-30T16:53:21;5.13;;;1.52;;
46322;SDS011;32044;52.386;13.278;2023-08-30T16:55:48;1.90;;;1.65;;
46322;SDS011;32044;52.386;13.278;2023-08-30T16:58:16;3.55;;;1.02;;
46322;SDS011;32044;52.386;13.278;2023-08-30T17:00:45;3.00;;;1.50;;
46322;SDS011;32044;52.386;13.278;2023-08-30T17:03:12;3.53;;;1.40;;
46322;SDS011;32044;52.386;13.278;2023-08-30T17:05:41;1.70;;;1.30;;
46322;SDS011;32044;52.386;13.278;2023-08-30T17:08:08;3.97;;;1.85;;
46322;SDS011;32044;52.386;13.278;2023-08-30T17:10:36;4.32;;;1.20;;
46322;SDS011;32044;52.386;13.278;2023-08-30T17:13:04;4.05;;;1.92;;
46322;SDS011;32044;52.386;13.278;2023-08-30T17:15:31;2.72;;;1.70;;
46322;SDS011;32044;52.386;13.278;2023-08-30T17:18:00;1.90;;;1.60;;
46322;SDS011;32044;52.386;13.278;2023-08-30T17:20:28;4.43;;;1.95;;
46322;SDS011;32044;52.386;13.278;2023-08-30T17:22:55;2.88;;;1.42;;
46322;SDS011;32044;52.386;13.278;2023-08-30T17:25:23;1.77;;;1.58;;
46322;SDS011;32044;52.386;13.278;2023-08-30T17:27:50;3.00;;;1.40;;